sensor_id;sensor_type;location;lat;lon;timestamp;pressure;altitude;pressure_sealevel;temperature;humidity
13068;BME280;6600;51.362;6.686;2022-08-19T00:00:23;100858.94;;;20.02;100.00
13068;BME280;6600;51.362;6.686;2022-08-19T00:02:49;100853.25;;;19.99;100.00
13068;BME280;6600;51.362;6.686;2022-08-19T00:05:15;100864.13;;;19.99;100.00
13068;BME280;6600;51.362;6.686;2022-08-19T00:07:42;100858.69;;;19.99;100.00
13068;BME280;6600;51.362;6.686;2022-08-19T00:10:10;100865.47;;;19.96;100.00
13068;BME280;6600;51.362;6.686;2022-08-19T00:12:36;100863.03;;;19.90;100.00
13068;BME280;6600;51.362;6.686;2022-08-19T00:15:04;100870.66;;;19.88;100.00
13068;BME280;6600;51.362;6.686;2022-08-19T00:17:29;100868.75;;;19.83;100.00
13068;BME280;6600;51.362;6.686;2022-08-19T00:19:55;100879.34;;;19.80;100.00
13068;BME280;6600;51.362;6.686;2022-08-19T00:22:21;100877.19;;;19.77;100.00
13068;BME280;6600;51.362;6.686;2022-08-19T00:24:46;100869.56;;;19.74;100.00
13068;BME280;6600;51.362;6.686;2022-08-19T00:27:12;100865.50;;;19.71;100.00
13068;BME280;6600;51.362;6.686;2022-08-19T00:29:38;100866.03;;;19.68;100.00
13068;BME280;6600;51.362;6.686;2022-08-19T00:32:04;100864.66;;;19.65;100.00
13068;BME280;6600;51.362;6.686;2022-08-19T00:34:29;100863.06;;;19.64;100.00
13068;BME280;6600;51.362;6.686;2022-08-19T00:36:55;100867.94;;;19.62;100.00
13068;BME280;6600;51.362;6.686;2022-08-19T00:39:21;100860.31;;;19.59;100.00
13068;BME280;6600;51.362;6.686;2022-08-19T00:41:48;100861.97;;;19.60;100.00
13068;BME280;6600;51.362;6.686;2022-08-19T00:44:18;100847.03;;;19.58;100.00
13068;BME280;6600;51.362;6.686;2022-08-19T00:46:49;100854.34;;;19.57;100.00
13068;BME280;6600;51.362;6.686;2022-08-19T00:49:25;100854.06;;;19.59;100.00
13068;BME280;6600;51.362;6.686;2022-08-19T00:52:01;100850.53;;;19.53;100.00
13068;BME280;6600;51.362;6.686;2022-08-19T00:54:28;100848.34;;;19.45;100.00
13068;BME280;6600;51.362;6.686;2022-08-19T00:56:54;100860.28;;;19.39;100.00
13068;BME280;6600;51.362;6.686;2022-08-19T00:59:19;100847.78;;;19.38;100.00
13068;BME280;6600;51.362;6.686;2022-08-19T01:01:46;100846.66;;;19.34;100.00
13068;BME280;6600;51.362;6.686;2022-08-19T01:04:12;100854.84;;;19.29;100.00
13068;BME280;6600;51.362;6.686;2022-08-19T01:06:39;100845.88;;;19.24;100.00
13068;BME280;6600;51.362;6.686;2022-08-19T01:09:06;100845.31;;;19.22;100.00
13068;BME280;6600;51.362;6.686;2022-08-19T01:11:36;100851.56;;;19.22;100.00
13068;BME280;6600;51.362;6.686;2022-08-19T01:14:03;100849.91;;;19.21;100.00
13068;BME280;6600;51.362;6.686;2022-08-19T01:16:29;100849.38;;;19.19;100.00
13068;BME280;6600;51.362;6.686;2022-08-19T01:18:55;100858.59;;;19.18;100.00
13068;BME280;6600;51.362;6.686;2022-08-19T01:21:42;100847.22;;;19.16;100.00
13068;BME280;6600;51.362;6.686;2022-08-19T01:24:10;100852.63;;;19.11;100.00
13068;BME280;6600;51.362;6.686;2022-08-19T01:26:41;100855.34;;;19.06;100.00
13068;BME280;6600;51.362;6.686;2022-08-19T01:29:08;100857.78;;;19.02;100.00
13068;BME280;6600;51.362;6.686;2022-08-19T01:31:34;100858.03;;;19.01;100.00
13068;BME280;6600;51.362;6.686;2022-08-19T01:34:00;100859.66;;;19.02;100.00
13068;BME280;6600;51.362;6.686;2022-08-19T01:36:38;100849.88;;;19.01;100.00
13068;BME280;6600;51.362;6.686;2022-08-19T01:39:09;100859.09;;;19.00;100.00
13068;BME280;6600;51.362;6.686;2022-08-19T01:41:36;100847.69;;;18.98;100.00
13068;BME280;6600;51.362;6.686;2022-08-19T01:44:04;100854.50;;;18.95;100.00
13068;BME280;6600;51.362;6.686;2022-08-19T01:46:31;100863.97;;;18.93;100.00
13068;BME280;6600;51.362;6.686;2022-08-19T01:48:56;100858.00;;;18.91;100.00
13068;BME280;6600;51.362;6.686;2022-08-19T01:51:22;100852.03;;;18.89;100.00
13068;BME280;6600;51.362;6.686;2022-08-19T01:53:49;100853.09;;;18.88;100.00
13068;BME280;6600;51.362;6.686;2022-08-19T01:56:15;100853.94;;;18.88;100.00
13068;BME280;6600;51.362;6.686;2022-08-19T01:58:49;100850.13;;;18.89;100.00
13068;BME280;6600;51.362;6.686;2022-08-19T02:01:16;100858.53;;;18.88;100.00
13068;BME280;6600;51.362;6.686;2022-08-19T02:03:42;100856.34;;;18.85;100.00
13068;BME280;6600;51.362;6.686;2022-08-19T02:06:08;100849.56;;;18.82;100.00
13068;BME280;6600;51.362;6.686;2022-08-19T02:08:36;100846.56;;;18.79;100.00
13068;BME280;6600;51.362;6.686;2022-08-19T02:11:02;100853.03;;;18.73;100.00
13068;BME280;6600;51.362;6.686;2022-08-19T02:13:28;100847.06;;;18.71;100.00
13068;BME280;6600;51.362;6.686;2022-08-19T02:15:53;100848.44;;;18.68;100.00
13068;BME280;6600;51.362;6.686;2022-08-19T02:18:19;100848.44;;;18.68;100.00
13068;BME280;6600;51.362;6.686;2022-08-19T02:20:44;100850.56;;;18.66;100.00
13068;BME280;6600;51.362;6.686;2022-08-19T02:23:12;100859.00;;;18.64;100.00
13068;BME280;6600;51.362;6.686;2022-08-19T02:25:38;100853.81;;;18.63;100.00
13068;BME280;6600;51.362;6.686;2022-08-19T02:28:04;100857.06;;;18.60;100.00
13068;BME280;6600;51.362;6.686;2022-08-19T02:30:30;100855.13;;;18.55;100.00
13068;BME280;6600;51.362;6.686;2022-08-19T02:32:56;100867.09;;;18.54;100.00
13068;BME280;6600;51.362;6.686;2022-08-19T02:35:21;100855.66;;;18.52;100.00
13068;BME280;6600;51.362;6.686;2022-08-19T02:37:46;100866.22;;;18.49;100.00
13068;BME280;6600;51.362;6.686;2022-08-19T02:40:31;100856.97;;;18.45;100.00
13068;BME280;6600;51.362;6.686;2022-08-19T02:43:03;100848.03;;;18.44;100.00
13068;BME280;6600;51.362;6.686;2022-08-19T02:45:35;100850.16;;;18.42;100.00
13068;BME280;6600;51.362;6.686;2022-08-19T02:48:01;100853.94;;;18.41;100.00
13068;BME280;6600;51.362;6.686;2022-08-19T02:50:27;100857.75;;;18.40;100.00
13068;BME280;6600;51.362;6.686;2022-08-19T02:52:52;100854.47;;;18.38;100.00
13068;BME280;6600;51.362;6.686;2022-08-19T02:55:18;100863.44;;;18.39;100.00
13068;BME280;6600;51.362;6.686;2022-08-19T02:57:43;100865.34;;;18.38;100.00
13068;BME280;6600;51.362;6.686;2022-08-19T03:00:09;100866.44;;;18.37;100.00
13068;BME280;6600;51.362;6.686;2022-08-19T03:02:39;100866.69;;;18.36;100.00
13068;BME280;6600;51.362;6.686;2022-08-19T03:05:06;100871.81;;;18.32;100.00
13068;BME280;6600;51.362;6.686;2022-08-19T03:07:31;100872.34;;;18.29;100.00
13068;BME280;6600;51.362;6.686;2022-08-19T03:09:57;100867.97;;;18.23;100.00
13068;BME280;6600;51.362;6.686;2022-08-19T03:12:22;100880.44;;;18.19;100.00
13068;BME280;6600;51.362;6.686;2022-08-19T03:14:48;100874.44;;;18.17;100.00
13068;BME280;6600;51.362;6.686;2022-08-19T03:17:13;100871.72;;;18.17;100.00
13068;BME280;6600;51.362;6.686;2022-08-19T03:19:39;100874.44;;;18.17;100.00
13068;BME280;6600;51.362;6.686;2022-08-19T03:22:04;100869.00;;;18.17;100.00
13068;BME280;6600;51.362;6.686;2022-08-19T03:24:30;100863.03;;;18.15;100.00
13068;BME280;6600;51.362;6.686;2022-08-19T03:26:56;100865.22;;;18.13;100.00
13068;BME280;6600;51.362;6.686;2022-08-19T03:29:29;100864.09;;;18.14;100.00
13068;BME280;6600;51.362;6.686;2022-08-19T03:32:00;100862.50;;;18.13;100.00
13068;BME280;6600;51.362;6.686;2022-08-19T03:34:29;100869.53;;;18.14;100.00
13068;BME280;6600;51.362;6.686;2022-08-19T03:36:57;100870.63;;;18.13;100.00
13068;BME280;6600;51.362;6.686;2022-08-19T03:39:24;100867.41;;;18.16;100.00
13068;BME280;6600;51.362;6.686;2022-08-19T03:41:53;100867.41;;;18.16;100.00
13068;BME280;6600;51.362;6.686;2022-08-19T03:44:22;100868.22;;;18.16;100.00
13068;BME280;6600;51.362;6.686;2022-08-19T03:46:50;100868.75;;;18.18;100.00
13068;BME280;6600;51.362;6.686;2022-08-19T03:49:17;100870.13;;;18.21;100.00
13068;BME280;6600;51.362;6.686;2022-08-19T03:51:43;100869.59;;;18.24;100.00
13068;BME280;6600;51.362;6.686;2022-08-19T03:54:10;100865.28;;;18.23;100.00
13068;BME280;6600;51.362;6.686;2022-08-19T03:56:38;100869.59;;;18.24;100.00
13068;BME280;6600;51.362;6.686;2022-08-19T03:59:07;100869.06;;;18.22;100.00
13068;BME280;6600;51.362;6.686;2022-08-19T04:01:34;100867.16;;;18.23;100.00
13068;BME280;6600;51.362;6.686;2022-08-19T04:04:01;100866.88;;;18.19;100.00
13068;BME280;6600;51.362;6.686;2022-08-19T04:06:29;100870.66;;;18.18;100.00
13068;BME280;6600;51.362;6.686;2022-08-19T04:08:56;100861.97;;;18.16;100.00
13068;BME280;6600;51.362;6.686;2022-08-19T04:11:26;100863.28;;;18.13;100.00
13068;BME280;6600;51.362;6.686;2022-08-19T04:13:53;100862.50;;;18.13;100.00
13068;BME280;6600;51.362;6.686;2022-08-19T04:16:20;100859.78;;;18.13;100.00
13068;BME280;6600;51.362;6.686;2022-08-19T04:18:47;100858.97;;;18.12;100.00
13068;BME280;6600;51.362;6.686;2022-08-19T04:21:18;100861.41;;;18.14;100.00
13068;BME280;6600;51.362;6.686;2022-08-19T04:23:44;100870.88;;;18.11;100.00
13068;BME280;6600;51.362;6.686;2022-08-19T04:26:14;100873.88;;;18.10;100.00
13068;BME280;6600;51.362;6.686;2022-08-19T04:28:41;100863.81;;;18.10;100.00
13068;BME280;6600;51.362;6.686;2022-08-19T04:31:12;100859.72;;;18.08;100.00
13068;BME280;6600;51.362;6.686;2022-08-19T04:33:38;100851.06;;;18.06;100.00
13068;BME280;6600;51.362;6.686;2022-08-19T04:36:04;100844.81;;;18.05;100.00
13068;BME280;6600;51.362;6.686;2022-08-19T04:38:29;100863.22;;;18.03;100.00
13068;BME280;6600;51.362;6.686;2022-08-19T04:40:55;100868.88;;;17.97;100.00
13068;BME280;6600;51.362;6.686;2022-08-19T04:43:38;100870.75;;;17.91;100.00
13068;BME280;6600;51.362;6.686;2022-08-19T04:46:09;100884.00;;;17.88;100.00
13068;BME280;6600;51.362;6.686;2022-08-19T04:48:35;100882.31;;;17.82;100.00
13068;BME280;6600;51.362;6.686;2022-08-19T04:51:06;100891.53;;;17.81;100.00
13068;BME280;6600;51.362;6.686;2022-08-19T04:53:34;100893.16;;;17.82;100.00
13068;BME280;6600;51.362;6.686;2022-08-19T04:56:06;100889.38;;;17.83;100.00
13068;BME280;6600;51.362;6.686;2022-08-19T04:58:32;100894.28;;;17.86;100.00
13068;BME280;6600;51.362;6.686;2022-08-19T05:00:58;100907.88;;;17.91;100.00
13068;BME280;6600;51.362;6.686;2022-08-19T05:03:25;100913.38;;;18.01;100.00
13068;BME280;6600;51.362;6.686;2022-08-19T05:05:51;100915.63;;;18.09;100.00
13068;BME280;6600;51.362;6.686;2022-08-19T05:08:20;100914.56;;;18.15;100.00
13068;BME280;6600;51.362;6.686;2022-08-19T05:10:50;100915.16;;;18.22;100.00
13068;BME280;6600;51.362;6.686;2022-08-19T05:13:18;100917.94;;;18.32;100.00
13068;BME280;6600;51.362;6.686;2022-08-19T05:15:53;100911.47;;;18.38;100.00
13068;BME280;6600;51.362;6.686;2022-08-19T05:18:19;100919.66;;;18.48;100.00
13068;BME280;6600;51.362;6.686;2022-08-19T05:21:08;100928.44;;;18.60;100.00
13068;BME280;6600;51.362;6.686;2022-08-19T05:23:53;100934.47;;;18.67;100.00
13068;BME280;6600;51.362;6.686;2022-08-19T05:26:19;100936.38;;;18.72;100.00
13068;BME280;6600;51.362;6.686;2022-08-19T05:28:44;100945.09;;;18.74;100.00
13068;BME280;6600;51.362;6.686;2022-08-19T05:31:09;100939.94;;;18.78;100.00
13068;BME280;6600;51.362;6.686;2022-08-19T05:33:35;100944.88;;;18.86;100.00
13068;BME280;6600;51.362;6.686;2022-08-19T05:36:01;100939.50;;;19.01;100.00
13068;BME280;6600;51.362;6.686;2022-08-19T05:38:26;100937.94;;;19.20;100.00
13068;BME280;6600;51.362;6.686;2022-08-19T05:40:52;100934.72;;;19.33;100.00
13068;BME280;6600;51.362;6.686;2022-08-19T05:43:17;100947.28;;;19.49;100.00
13068;BME280;6600;51.362;6.686;2022-08-19T05:45:43;100935.34;;;19.55;100.00
13068;BME280;6600;51.362;6.686;2022-08-19T05:48:10;100934.28;;;19.66;100.00
13068;BME280;6600;51.362;6.686;2022-08-19T05:50:37;100932.66;;;19.71;100.00
13068;BME280;6600;51.362;6.686;2022-08-19T05:53:03;100937.00;;;19.82;100.00
13068;BME280;6600;51.362;6.686;2022-08-19T05:55:28;100935.38;;;19.86;100.00
13068;BME280;6600;51.362;6.686;2022-08-19T05:57:54;100935.38;;;20.06;100.00
13068;BME280;6600;51.362;6.686;2022-08-19T06:00:19;100933.47;;;20.11;100.00
13068;BME280;6600;51.362;6.686;2022-08-19T06:02:45;100938.06;;;20.21;100.00
13068;BME280;6600;51.362;6.686;2022-08-19T06:05:10;100941.63;;;20.32;100.00
13068;BME280;6600;51.362;6.686;2022-08-19T06:07:37;100946.25;;;20.36;100.00
13068;BME280;6600;51.362;6.686;2022-08-19T06:10:05;100942.97;;;20.49;100.00
13068;BME280;6600;51.362;6.686;2022-08-19T06:12:31;100941.31;;;20.63;100.00
13068;BME280;6600;51.362;6.686;2022-08-19T06:15:06;100937.75;;;20.68;100.00
13068;BME280;6600;51.362;6.686;2022-08-19T06:17:33;100935.03;;;20.63;100.00
13068;BME280;6600;51.362;6.686;2022-08-19T06:20:00;100934.16;;;20.83;100.00
13068;BME280;6600;51.362;6.686;2022-08-19T06:22:26;100934.09;;;21.03;100.00
13068;BME280;6600;51.362;6.686;2022-08-19T06:24:52;100935.13;;;21.07;100.00
13068;BME280;6600;51.362;6.686;2022-08-19T06:27:19;100938.41;;;21.14;100.00
13068;BME280;6600;51.362;6.686;2022-08-19T06:29:45;100946.56;;;21.19;100.00
13068;BME280;6600;51.362;6.686;2022-08-19T06:32:13;100946.84;;;21.23;100.00
13068;BME280;6600;51.362;6.686;2022-08-19T06:34:39;100941.66;;;21.21;100.00
13068;BME280;6600;51.362;6.686;2022-08-19T06:37:06;100947.59;;;21.28;100.00
13068;BME280;6600;51.362;6.686;2022-08-19T06:39:34;100937.22;;;21.35;100.00
13068;BME280;6600;51.362;6.686;2022-08-19T06:42:02;100937.72;;;21.42;100.00
13068;BME280;6600;51.362;6.686;2022-08-19T06:44:30;100941.84;;;21.35;100.00
13068;BME280;6600;51.362;6.686;2022-08-19T06:47:01;100943.16;;;21.47;100.00
13068;BME280;6600;51.362;6.686;2022-08-19T06:49:27;100933.41;;;21.36;100.00
13068;BME280;6600;51.362;6.686;2022-08-19T06:51:56;100942.09;;;21.38;100.00
13068;BME280;6600;51.362;6.686;2022-08-19T06:54:22;100937.75;;;21.37;100.00
13068;BME280;6600;51.362;6.686;2022-08-19T06:56:48;100932.25;;;21.47;100.00
13068;BME280;6600;51.362;6.686;2022-08-19T06:59:19;100941.19;;;21.58;100.00
13068;BME280;6600;51.362;6.686;2022-08-19T07:01:53;100942.44;;;21.71;100.00
13068;BME280;6600;51.362;6.686;2022-08-19T07:04:21;100943.31;;;22.00;100.00
13068;BME280;6600;51.362;6.686;2022-08-19T07:06:47;100945.22;;;22.04;100.00
13068;BME280;6600;51.362;6.686;2022-08-19T07:09:16;100947.41;;;22.02;100.00
13068;BME280;6600;51.362;6.686;2022-08-19T07:11:47;100950.56;;;22.14;100.00
13068;BME280;6600;51.362;6.686;2022-08-19T07:14:15;100951.78;;;22.32;99.97
13068;BME280;6600;51.362;6.686;2022-08-19T07:16:43;100952.75;;;22.46;98.89
13068;BME280;6600;51.362;6.686;2022-08-19T07:19:11;100955.88;;;22.58;98.57
13068;BME280;6600;51.362;6.686;2022-08-19T07:21:36;100959.34;;;22.69;98.24
13068;BME280;6600;51.362;6.686;2022-08-19T07:24:02;100964.66;;;22.84;97.75
13068;BME280;6600;51.362;6.686;2022-08-19T07:26:31;100970.28;;;22.93;98.61
13068;BME280;6600;51.362;6.686;2022-08-19T07:28:58;100964.81;;;22.93;98.24
13068;BME280;6600;51.362;6.686;2022-08-19T07:31:26;100965.94;;;22.92;98.86
13068;BME280;6600;51.362;6.686;2022-08-19T07:33:54;100959.53;;;22.78;98.89
13068;BME280;6600;51.362;6.686;2022-08-19T07:36:27;100967.78;;;22.73;98.72
13068;BME280;6600;51.362;6.686;2022-08-19T07:38:56;100970.22;;;22.98;98.55
13068;BME280;6600;51.362;6.686;2022-08-19T07:41:23;100969.50;;;23.11;97.96
13068;BME280;6600;51.362;6.686;2022-08-19T07:43:50;100977.53;;;23.26;97.52
13068;BME280;6600;51.362;6.686;2022-08-19T07:46:17;100972.06;;;23.26;96.87
13068;BME280;6600;51.362;6.686;2022-08-19T07:48:44;100981.38;;;23.25;96.54
13068;BME280;6600;51.362;6.686;2022-08-19T07:51:14;100990.66;;;23.24;96.87
13068;BME280;6600;51.362;6.686;2022-08-19T07:53:41;100979.28;;;23.41;95.59
13068;BME280;6600;51.362;6.686;2022-08-19T07:56:07;100983.22;;;23.53;95.79
13068;BME280;6600;51.362;6.686;2022-08-19T07:58:35;100989.63;;;23.44;95.35
13068;BME280;6600;51.362;6.686;2022-08-19T08:01:03;100992.97;;;23.59;94.62
13068;BME280;6600;51.362;6.686;2022-08-19T08:03:29;100996.22;;;23.61;94.88
13068;BME280;6600;51.362;6.686;2022-08-19T08:06:14;101009.66;;;23.77;93.66
13068;BME280;6600;51.362;6.686;2022-08-19T08:09:01;101008.06;;;23.57;91.78
13068;BME280;6600;51.362;6.686;2022-08-19T08:11:44;101008.28;;;23.60;90.89
13068;BME280;6600;51.362;6.686;2022-08-19T08:14:26;101014.34;;;23.57;92.40
13068;BME280;6600;51.362;6.686;2022-08-19T08:16:52;101009.06;;;23.42;93.78
13068;BME280;6600;51.362;6.686;2022-08-19T08:19:20;101018.59;;;23.21;92.86
13068;BME280;6600;51.362;6.686;2022-08-19T08:21:47;101012.66;;;23.14;93.76
13068;BME280;6600;51.362;6.686;2022-08-19T08:24:13;101013.91;;;23.03;93.57
13068;BME280;6600;51.362;6.686;2022-08-19T08:26:39;101008.44;;;23.03;95.23
13068;BME280;6600;51.362;6.686;2022-08-19T08:29:04;101018.72;;;23.11;95.61
13068;BME280;6600;51.362;6.686;2022-08-19T08:31:32;101019.06;;;23.28;96.36
13068;BME280;6600;51.362;6.686;2022-08-19T08:33:59;101015.69;;;23.36;94.70
13068;BME280;6600;51.362;6.686;2022-08-19T08:36:24;101021.75;;;23.33;92.65
13068;BME280;6600;51.362;6.686;2022-08-19T08:38:50;101025.09;;;23.49;92.45
13068;BME280;6600;51.362;6.686;2022-08-19T08:44:00;101027.19;;;23.57;90.57
13068;BME280;6600;51.362;6.686;2022-08-19T08:46:37;101027.19;;;23.57;89.39
13068;BME280;6600;51.362;6.686;2022-08-19T08:51:54;101028.78;;;23.82;89.29
13068;BME280;6600;51.362;6.686;2022-08-19T08:54:28;101023.44;;;24.09;87.67
13068;BME280;6600;51.362;6.686;2022-08-19T08:56:55;101023.19;;;24.24;87.44
13068;BME280;6600;51.362;6.686;2022-08-19T08:59:27;101017.47;;;24.39;86.40
13068;BME280;6600;51.362;6.686;2022-08-19T09:01:56;101018.56;;;24.38;85.80
13068;BME280;6600;51.362;6.686;2022-08-19T09:04:21;101026.97;;;24.28;85.84
13068;BME280;6600;51.362;6.686;2022-08-19T09:09:40;101022.34;;;24.42;86.97
13068;BME280;6600;51.362;6.686;2022-08-19T09:12:10;101014.91;;;24.29;86.40
13068;BME280;6600;51.362;6.686;2022-08-19T09:17:08;101016.09;;;24.69;83.98
13068;BME280;6600;51.362;6.686;2022-08-19T09:19:48;101012.47;;;24.74;82.51
13068;BME280;6600;51.362;6.686;2022-08-19T09:22:14;101020.25;;;24.85;82.42
13068;BME280;6600;51.362;6.686;2022-08-19T09:24:39;101014.53;;;24.82;81.04
13068;BME280;6600;51.362;6.686;2022-08-19T09:27:05;101015.47;;;24.91;80.99
13068;BME280;6600;51.362;6.686;2022-08-19T09:29:31;101013.13;;;24.98;80.75
13068;BME280;6600;51.362;6.686;2022-08-19T09:31:56;101025.13;;;25.02;81.38
13068;BME280;6600;51.362;6.686;2022-08-19T09:34:21;101016.97;;;24.83;81.66
13068;BME280;6600;51.362;6.686;2022-08-19T09:36:47;101023.28;;;24.84;82.32
13068;BME280;6600;51.362;6.686;2022-08-19T09:39:14;101029.78;;;24.88;80.58
13068;BME280;6600;51.362;6.686;2022-08-19T09:41:39;101016.56;;;24.90;79.94
13068;BME280;6600;51.362;6.686;2022-08-19T09:44:05;101016.16;;;24.96;80.65
13068;BME280;6600;51.362;6.686;2022-08-19T09:46:30;101018.91;;;25.10;80.48
13068;BME280;6600;51.362;6.686;2022-08-19T09:48:58;101019.81;;;25.33;78.45
13068;BME280;6600;51.362;6.686;2022-08-19T09:51:26;101020.03;;;25.36;78.32
13068;BME280;6600;51.362;6.686;2022-08-19T09:53:52;101011.81;;;25.36;78.57
13068;BME280;6600;51.362;6.686;2022-08-19T09:56:22;101022.66;;;25.41;78.13
13068;BME280;6600;51.362;6.686;2022-08-19T09:58:48;101012.69;;;25.45;77.50
13068;BME280;6600;51.362;6.686;2022-08-19T10:01:20;101016.38;;;25.54;76.78
13068;BME280;6600;51.362;6.686;2022-08-19T10:03:49;101012.31;;;25.52;77.44
13068;BME280;6600;51.362;6.686;2022-08-19T10:06:15;101017.56;;;25.48;76.62
13068;BME280;6600;51.362;6.686;2022-08-19T10:08:40;101013.09;;;25.66;77.30
13068;BME280;6600;51.362;6.686;2022-08-19T10:11:06;101016.50;;;25.85;77.07
13068;BME280;6600;51.362;6.686;2022-08-19T10:13:32;101008.41;;;25.67;75.79
13068;BME280;6600;51.362;6.686;2022-08-19T10:16:06;101015.06;;;25.88;76.55
13068;BME280;6600;51.362;6.686;2022-08-19T10:18:33;101019.75;;;25.87;75.38
13068;BME280;6600;51.362;6.686;2022-08-19T10:21:08;101016.31;;;25.82;76.19
13068;BME280;6600;51.362;6.686;2022-08-19T10:23:38;101007.31;;;25.90;75.36
13068;BME280;6600;51.362;6.686;2022-08-19T10:26:05;101000.31;;;25.84;75.47
13068;BME280;6600;51.362;6.686;2022-08-19T10:28:33;100993.72;;;25.85;75.93
13068;BME280;6600;51.362;6.686;2022-08-19T10:31:06;100997.00;;;25.73;75.59
13068;BME280;6600;51.362;6.686;2022-08-19T10:33:33;101003.34;;;25.46;77.03
13068;BME280;6600;51.362;6.686;2022-08-19T10:36:07;100994.53;;;25.22;76.72
13068;BME280;6600;51.362;6.686;2022-08-19T10:38:34;100994.75;;;25.12;77.80
13068;BME280;6600;51.362;6.686;2022-08-19T10:41:13;100984.69;;;25.21;77.81
13068;BME280;6600;51.362;6.686;2022-08-19T10:43:40;100986.09;;;25.32;77.48
13068;BME280;6600;51.362;6.686;2022-08-19T10:46:08;100977.09;;;25.68;77.26
13068;BME280;6600;51.362;6.686;2022-08-19T10:48:34;100999.66;;;25.78;75.73
13068;BME280;6600;51.362;6.686;2022-08-19T10:51:00;100994.22;;;25.87;74.43
13068;BME280;6600;51.362;6.686;2022-08-19T10:53:44;100991.16;;;25.52;74.57
13068;BME280;6600;51.362;6.686;2022-08-19T10:56:10;100988.00;;;25.45;75.10
13068;BME280;6600;51.362;6.686;2022-08-19T10:58:54;100991.38;;;25.29;75.82
13068;BME280;6600;51.362;6.686;2022-08-19T11:01:22;100978.16;;;25.44;75.13
13068;BME280;6600;51.362;6.686;2022-08-19T11:03:47;100982.44;;;26.08;75.16
13068;BME280;6600;51.362;6.686;2022-08-19T11:06:13;100979.72;;;26.61;72.83
13068;BME280;6600;51.362;6.686;2022-08-19T11:08:38;100974.09;;;27.06;70.90
13068;BME280;6600;51.362;6.686;2022-08-19T11:11:06;100970.88;;;27.21;69.64
13068;BME280;6600;51.362;6.686;2022-08-19T11:13:35;100975.00;;;27.41;69.06
13068;BME280;6600;51.362;6.686;2022-08-19T11:16:07;100983.09;;;27.37;68.45
13068;BME280;6600;51.362;6.686;2022-08-19T11:18:37;100982.84;;;27.08;67.76
13068;BME280;6600;51.362;6.686;2022-08-19T11:23:33;100977.78;;;27.49;67.61
13068;BME280;6600;51.362;6.686;2022-08-19T11:25:59;100981.00;;;27.86;67.43
13068;BME280;6600;51.362;6.686;2022-08-19T11:28:26;100982.81;;;27.82;65.57
13068;BME280;6600;51.362;6.686;2022-08-19T11:30:51;100975.69;;;27.81;66.34
13068;BME280;6600;51.362;6.686;2022-08-19T11:33:17;100971.63;;;27.87;67.38
13068;BME280;6600;51.362;6.686;2022-08-19T11:35:42;100964.97;;;27.45;66.38
13068;BME280;6600;51.362;6.686;2022-08-19T11:38:07;100967.34;;;27.38;66.08
13068;BME280;6600;51.362;6.686;2022-08-19T11:40:33;100969.03;;;27.47;64.79
13068;BME280;6600;51.362;6.686;2022-08-19T11:42:58;100977.63;;;26.98;65.60
13068;BME280;6600;51.362;6.686;2022-08-19T11:45:26;100970.41;;;26.80;66.76
13068;BME280;6600;51.362;6.686;2022-08-19T11:47:52;100964.47;;;26.86;65.42
13068;BME280;6600;51.362;6.686;2022-08-19T11:50:18;100962.22;;;26.88;64.30
13068;BME280;6600;51.362;6.686;2022-08-19T11:52:44;100955.97;;;27.05;65.52
13068;BME280;6600;51.362;6.686;2022-08-19T11:55:11;100959.41;;;27.19;65.10
13068;BME280;6600;51.362;6.686;2022-08-19T11:57:38;100954.41;;;27.30;64.73
13068;BME280;6600;51.362;6.686;2022-08-19T12:00:06;100954.78;;;27.45;63.48
13068;BME280;6600;51.362;6.686;2022-08-19T12:02:33;100962.38;;;27.83;63.75
13068;BME280;6600;51.362;6.686;2022-08-19T12:04:58;100965.47;;;27.90;64.56
13068;BME280;6600;51.362;6.686;2022-08-19T12:07:28;100965.47;;;27.47;62.47
13068;BME280;6600;51.362;6.686;2022-08-19T12:09:54;100957.38;;;27.59;60.48
13068;BME280;6600;51.362;6.686;2022-08-19T12:12:19;100956.09;;;27.56;59.91
13068;BME280;6600;51.362;6.686;2022-08-19T12:14:45;100960.94;;;27.59;59.62
13068;BME280;6600;51.362;6.686;2022-08-19T12:17:11;100955.28;;;27.73;60.34
13068;BME280;6600;51.362;6.686;2022-08-19T12:19:38;100948.94;;;27.90;61.26
13068;BME280;6600;51.362;6.686;2022-08-19T12:22:04;100947.34;;;27.89;60.02
13068;BME280;6600;51.362;6.686;2022-08-19T12:24:31;100939.06;;;28.15;59.45
13068;BME280;6600;51.362;6.686;2022-08-19T12:26:57;100940.16;;;28.22;59.56
13068;BME280;6600;51.362;6.686;2022-08-19T12:29:24;100941.00;;;28.14;57.42
13068;BME280;6600;51.362;6.686;2022-08-19T12:31:55;100935.31;;;28.19;58.53
13068;BME280;6600;51.362;6.686;2022-08-19T12:34:25;100942.63;;;28.15;59.55
13068;BME280;6600;51.362;6.686;2022-08-19T12:36:51;100940.53;;;28.12;60.12
13068;BME280;6600;51.362;6.686;2022-08-19T12:39:16;100941.19;;;28.09;59.87
13068;BME280;6600;51.362;6.686;2022-08-19T12:41:42;100938.22;;;28.14;59.21
13068;BME280;6600;51.362;6.686;2022-08-19T12:44:07;100940.19;;;27.88;58.68
13068;BME280;6600;51.362;6.686;2022-08-19T12:46:33;100935.31;;;28.19;58.93
13068;BME280;6600;51.362;6.686;2022-08-19T12:48:58;100935.47;;;28.14;57.21
13068;BME280;6600;51.362;6.686;2022-08-19T12:51:24;100936.28;;;28.23;58.75
13068;BME280;6600;51.362;6.686;2022-08-19T12:53:51;100930.94;;;28.27;55.64
13068;BME280;6600;51.362;6.686;2022-08-19T12:56:17;100935.16;;;28.07;54.54
13068;BME280;6600;51.362;6.686;2022-08-19T12:58:44;100934.47;;;28.27;54.46
13068;BME280;6600;51.362;6.686;2022-08-19T13:01:12;100931.59;;;27.89;55.23
13068;BME280;6600;51.362;6.686;2022-08-19T13:03:38;100930.47;;;28.16;55.30
13068;BME280;6600;51.362;6.686;2022-08-19T13:06:03;100938.88;;;28.11;56.10
13068;BME280;6600;51.362;6.686;2022-08-19T13:08:29;100930.16;;;27.92;56.70
13068;BME280;6600;51.362;6.686;2022-08-19T13:10:54;100923.03;;;28.08;56.77